Jefferson, South Carolina
Current Conditions -  °F | °C
As of 9:55 AM on Friday 28 Nov 2014 (Local Time) from KCQW Reporting Station
Clear Clear  
Wind Chill: 30°   Ceiling: Unl
Heat Index: 37°   Visibility: 10mi
Dew Point: 18°   Wind: 12mph
Humidity: 45%   Direction: 10°N
Pressure: 30.41"   Gusts: NA
Location:  34.65°N, 80.39°W
Report Text: KCQW 281455Z AUTO 01010KT 10SM CLR 03/M08 A3041 RMK AO2
Loading
Personal Weather Stations






























Interactive Weather Map New forecast layout! Learn more

10-Day Weather Forecast

Advertisements
Track Severe Weather on mobile